sensor_id;sensor_type;location;lat;lon;timestamp;pressure;altitude;pressure_sealevel;temperature;humidity
41044;BME280;51680;49.806;18.774;2023-04-26T00:02:11;96883.28;;;10.72;63.00
41044;BME280;51680;49.806;18.774;2023-04-26T00:05:13;96884.09;;;10.73;63.16
41044;BME280;51680;49.806;18.774;2023-04-26T00:08:15;96893.72;;;10.72;62.93
41044;BME280;51680;49.806;18.774;2023-04-26T00:11:17;96890.38;;;10.70;63.00
41044;BME280;51680;49.806;18.774;2023-04-26T00:14:20;96899.16;;;10.69;63.19
41044;BME280;51680;49.806;18.774;2023-04-26T00:17:22;96901.28;;;10.64;63.15
41044;BME280;51680;49.806;18.774;2023-04-26T00:20:24;96902.31;;;10.62;63.21
41044;BME280;51680;49.806;18.774;2023-04-26T00:23:26;96899.22;;;10.57;62.86
41044;BME280;51680;49.806;18.774;2023-04-26T00:26:27;96904.13;;;10.49;62.94
41044;BME280;51680;49.806;18.774;2023-04-26T00:29:31;96899.25;;;10.44;63.13
41044;BME280;51680;49.806;18.774;2023-04-26T00:32:34;96900.06;;;10.45;62.67
41044;BME280;51680;49.806;18.774;2023-04-26T00:35:36;96904.47;;;10.44;62.51
41044;BME280;51680;49.806;18.774;2023-04-26T00:38:38;96903.31;;;10.48;62.54
41044;BME280;51680;49.806;18.774;2023-04-26T00:41:40;96897.97;;;10.50;61.71
41044;BME280;51680;49.806;18.774;2023-04-26T00:44:43;96902.13;;;10.52;62.22
41044;BME280;51680;49.806;18.774;2023-04-26T00:47:45;96904.88;;;10.51;62.30
41044;BME280;51680;49.806;18.774;2023-04-26T00:50:47;96906.03;;;10.47;61.61
41044;BME280;51680;49.806;18.774;2023-04-26T00:53:49;96904.34;;;10.46;61.72
41044;BME280;51680;49.806;18.774;2023-04-26T00:56:51;96917.63;;;10.43;61.58
41044;BME280;51680;49.806;18.774;2023-04-26T00:59:54;96917.63;;;10.43;62.06
41044;BME280;51680;49.806;18.774;2023-04-26T01:02:56;96924.41;;;10.45;61.59
41044;BME280;51680;49.806;18.774;2023-04-26T01:05:57;96914.78;;;10.46;61.25
41044;BME280;51680;49.806;18.774;2023-04-26T01:09:01;96911.34;;;10.45;61.37
41044;BME280;51680;49.806;18.774;2023-04-26T01:12:05;96914.69;;;10.47;61.21
41044;BME280;51680;49.806;18.774;2023-04-26T01:15:10;96926.81;;;10.48;61.02
41044;BME280;51680;49.806;18.774;2023-04-26T01:18:11;96926.00;;;10.35;62.04
41044;BME280;51680;49.806;18.774;2023-04-26T01:21:18;96922.25;;;10.39;61.56
41044;BME280;51680;49.806;18.774;2023-04-26T01:24:22;96921.28;;;10.40;61.02
41044;BME280;51680;49.806;18.774;2023-04-26T01:27:24;96926.63;;;10.39;61.21
41044;BME280;51680;49.806;18.774;2023-04-26T01:30:26;96930.97;;;10.38;60.99
41044;BME280;51680;49.806;18.774;2023-04-26T01:33:27;96943.09;;;10.39;60.60
41044;BME280;51680;49.806;18.774;2023-04-26T01:36:29;96948.34;;;10.39;60.87
41044;BME280;51680;49.806;18.774;2023-04-26T01:39:35;96943.50;;;10.33;60.97
41044;BME280;51680;49.806;18.774;2023-04-26T01:42:37;96947.50;;;10.26;60.63
41044;BME280;51680;49.806;18.774;2023-04-26T01:45:39;96953.88;;;10.22;60.54
41044;BME280;51680;49.806;18.774;2023-04-26T01:48:59;96946.69;;;10.13;60.88
41044;BME280;51680;49.806;18.774;2023-04-26T01:52:03;96944.50;;;10.07;60.70
41044;BME280;51680;49.806;18.774;2023-04-26T01:55:07;96947.84;;;10.09;61.03
41044;BME280;51680;49.806;18.774;2023-04-26T01:58:09;96933.38;;;10.05;60.72
41044;BME280;51680;49.806;18.774;2023-04-26T02:01:11;96938.13;;;9.99;60.51
41044;BME280;51680;49.806;18.774;2023-04-26T02:04:12;96937.72;;;9.92;60.28
41044;BME280;51680;49.806;18.774;2023-04-26T02:07:14;96931.97;;;9.87;60.68
41044;BME280;51680;49.806;18.774;2023-04-26T02:10:20;96944.78;;;9.78;60.41
41044;BME280;51680;49.806;18.774;2023-04-26T02:13:22;96942.81;;;9.69;60.67
41044;BME280;51680;49.806;18.774;2023-04-26T02:16:24;96947.41;;;9.65;60.47
41044;BME280;51680;49.806;18.774;2023-04-26T02:19:26;96948.75;;;9.58;60.61
41044;BME280;51680;49.806;18.774;2023-04-26T02:22:28;96944.59;;;9.56;60.92
41044;BME280;51680;49.806;18.774;2023-04-26T02:25:32;96952.59;;;9.53;61.00
41044;BME280;51680;49.806;18.774;2023-04-26T02:28:33;96948.75;;;9.46;61.13
41044;BME280;51680;49.806;18.774;2023-04-26T02:31:35;96946.66;;;9.38;61.25
41044;BME280;51680;49.806;18.774;2023-04-26T02:34:37;96956.72;;;9.30;61.17
41044;BME280;51680;49.806;18.774;2023-04-26T02:37:39;96950.25;;;9.23;61.64
41044;BME280;51680;49.806;18.774;2023-04-26T02:40:42;96955.13;;;9.15;61.62
41044;BME280;51680;49.806;18.774;2023-04-26T02:43:46;96950.00;;;9.01;61.96
41044;BME280;51680;49.806;18.774;2023-04-26T02:46:48;96963.78;;;8.89;62.18
41044;BME280;51680;49.806;18.774;2023-04-26T02:49:50;96972.09;;;8.82;62.03
41044;BME280;51680;49.806;18.774;2023-04-26T02:52:52;96971.34;;;8.80;62.12
41044;BME280;51680;49.806;18.774;2023-04-26T02:55:55;96961.97;;;8.77;62.33
41044;BME280;51680;49.806;18.774;2023-04-26T02:58:56;96971.75;;;8.74;62.47
41044;BME280;51680;49.806;18.774;2023-04-26T03:01:58;96966.63;;;8.72;62.21
41044;BME280;51680;49.806;18.774;2023-04-26T03:05:00;96959.19;;;8.66;62.26
41044;BME280;51680;49.806;18.774;2023-04-26T03:08:02;96974.16;;;8.63;62.27
41044;BME280;51680;49.806;18.774;2023-04-26T03:11:05;96973.00;;;8.54;62.63
41044;BME280;51680;49.806;18.774;2023-04-26T03:14:08;96983.25;;;8.29;64.20
41044;BME280;51680;49.806;18.774;2023-04-26T03:17:10;96985.94;;;8.28;63.22
41044;BME280;51680;49.806;18.774;2023-04-26T03:20:12;96973.03;;;8.26;62.69
41044;BME280;51680;49.806;18.774;2023-04-26T03:23:14;96977.72;;;8.20;63.17
41044;BME280;51680;49.806;18.774;2023-04-26T03:26:17;96977.09;;;8.16;63.19
41044;BME280;51680;49.806;18.774;2023-04-26T03:29:19;96980.16;;;8.09;62.86
41044;BME280;51680;49.806;18.774;2023-04-26T03:32:21;96974.66;;;7.99;62.95
41044;BME280;51680;49.806;18.774;2023-04-26T03:35:23;96978.41;;;7.95;63.80
41044;BME280;51680;49.806;18.774;2023-04-26T03:38:25;96982.09;;;7.91;63.63
41044;BME280;51680;49.806;18.774;2023-04-26T03:41:28;96995.66;;;7.96;63.31
41044;BME280;51680;49.806;18.774;2023-04-26T03:44:36;96989.81;;;7.93;63.56
41044;BME280;51680;49.806;18.774;2023-04-26T03:47:38;96994.34;;;7.89;63.49
41044;BME280;51680;49.806;18.774;2023-04-26T03:50:40;96995.56;;;7.84;64.09
41044;BME280;51680;49.806;18.774;2023-04-26T03:53:44;96997.41;;;7.82;63.82
41044;BME280;51680;49.806;18.774;2023-04-26T03:56:47;97004.16;;;7.84;64.04
41044;BME280;51680;49.806;18.774;2023-04-26T03:59:49;97009.03;;;7.90;63.88
41044;BME280;51680;49.806;18.774;2023-04-26T04:02:51;97017.56;;;8.06;63.46
41044;BME280;51680;49.806;18.774;2023-04-26T04:05:58;97015.75;;;8.22;62.77
41044;BME280;51680;49.806;18.774;2023-04-26T04:09:18;97011.84;;;8.43;62.34
41044;BME280;51680;49.806;18.774;2023-04-26T04:12:21;97020.72;;;8.67;62.12
41044;BME280;51680;49.806;18.774;2023-04-26T04:15:23;97026.47;;;8.86;61.81
41044;BME280;51680;49.806;18.774;2023-04-26T04:18:27;97032.59;;;9.12;60.88
41044;BME280;51680;49.806;18.774;2023-04-26T04:21:29;97023.94;;;9.38;60.04
41044;BME280;51680;49.806;18.774;2023-04-26T04:24:32;97026.31;;;9.67;59.43
41044;BME280;51680;49.806;18.774;2023-04-26T04:27:36;97023.00;;;9.90;58.73
41044;BME280;51680;49.806;18.774;2023-04-26T04:30:38;97019.50;;;10.16;58.11
41044;BME280;51680;49.806;18.774;2023-04-26T04:33:39;97015.72;;;10.45;57.82
41044;BME280;51680;49.806;18.774;2023-04-26T04:36:42;97024.25;;;10.72;56.86
41044;BME280;51680;49.806;18.774;2023-04-26T04:39:44;97015.91;;;11.03;56.32
41044;BME280;51680;49.806;18.774;2023-04-26T04:42:48;97017.34;;;11.31;55.53
41044;BME280;51680;49.806;18.774;2023-04-26T04:45:51;97024.75;;;11.60;54.86
41044;BME280;51680;49.806;18.774;2023-04-26T04:48:53;97017.50;;;11.87;54.08
41044;BME280;51680;49.806;18.774;2023-04-26T04:51:55;97025.97;;;12.13;53.43
41044;BME280;51680;49.806;18.774;2023-04-26T04:54:57;97028.63;;;12.46;52.91
41044;BME280;51680;49.806;18.774;2023-04-26T04:58:00;97026.13;;;12.77;51.89
41044;BME280;51680;49.806;18.774;2023-04-26T05:01:03;97024.22;;;13.01;51.18
41044;BME280;51680;49.806;18.774;2023-04-26T05:04:18;97022.63;;;13.21;50.72
41044;BME280;51680;49.806;18.774;2023-04-26T05:07:20;97023.16;;;13.35;49.85
41044;BME280;51680;49.806;18.774;2023-04-26T05:10:26;97030.28;;;13.55;49.33
41044;BME280;51680;49.806;18.774;2023-04-26T05:13:30;97028.00;;;13.82;48.35
41044;BME280;51680;49.806;18.774;2023-04-26T05:16:31;97037.44;;;14.05;48.02
41044;BME280;51680;49.806;18.774;2023-04-26T05:19:36;97023.53;;;14.14;47.55
41044;BME280;51680;49.806;18.774;2023-04-26T05:22:38;97047.53;;;14.21;46.96
41044;BME280;51680;49.806;18.774;2023-04-26T05:25:40;97051.78;;;14.42;46.52
41044;BME280;51680;49.806;18.774;2023-04-26T05:29:16;97044.16;;;14.69;46.10
41044;BME280;51680;49.806;18.774;2023-04-26T05:32:18;97046.44;;;14.83;45.65
41044;BME280;51680;49.806;18.774;2023-04-26T05:35:28;97042.28;;;14.81;44.93
41044;BME280;51680;49.806;18.774;2023-04-26T05:38:30;97045.84;;;15.00;44.92
41044;BME280;51680;49.806;18.774;2023-04-26T05:41:31;97047.97;;;15.25;44.30
41044;BME280;51680;49.806;18.774;2023-04-26T05:44:35;97037.94;;;15.49;44.04
41044;BME280;51680;49.806;18.774;2023-04-26T05:47:36;97048.50;;;15.68;43.21
41044;BME280;51680;49.806;18.774;2023-04-26T05:50:38;97037.97;;;15.78;42.55
41044;BME280;51680;49.806;18.774;2023-04-26T05:53:40;97041.00;;;15.92;42.03
41044;BME280;51680;49.806;18.774;2023-04-26T05:56:42;97038.50;;;16.10;41.66
41044;BME280;51680;49.806;18.774;2023-04-26T05:59:45;97047.66;;;16.15;41.21
41044;BME280;51680;49.806;18.774;2023-04-26T06:02:48;97050.28;;;16.15;39.62
41044;BME280;51680;49.806;18.774;2023-04-26T06:05:51;97055.69;;;16.23;40.96
41044;BME280;51680;49.806;18.774;2023-04-26T06:08:55;97054.97;;;16.21;40.46
41044;BME280;51680;49.806;18.774;2023-04-26T06:11:58;97059.84;;;16.16;40.52
41044;BME280;51680;49.806;18.774;2023-04-26T06:15:01;97061.78;;;16.43;40.76
41044;BME280;51680;49.806;18.774;2023-04-26T06:18:05;97063.63;;;16.69;40.60
41044;BME280;51680;49.806;18.774;2023-04-26T06:21:06;97064.69;;;16.95;39.77
41044;BME280;51680;49.806;18.774;2023-04-26T06:24:10;97061.81;;;17.16;39.82
41044;BME280;51680;49.806;18.774;2023-04-26T06:27:11;97061.97;;;17.41;39.13
41044;BME280;51680;49.806;18.774;2023-04-26T06:30:19;97063.66;;;17.60;38.98
41044;BME280;51680;49.806;18.774;2023-04-26T06:33:22;97058.06;;;17.80;38.50
41044;BME280;51680;49.806;18.774;2023-04-26T06:36:24;97062.47;;;17.89;38.21
41044;BME280;51680;49.806;18.774;2023-04-26T06:39:28;97051.31;;;17.95;38.08
41044;BME280;51680;49.806;18.774;2023-04-26T06:42:30;97060.72;;;17.36;38.81
41044;BME280;51680;49.806;18.774;2023-04-26T06:46:06;97063.94;;;17.39;39.18
41044;BME280;51680;49.806;18.774;2023-04-26T06:49:08;97059.38;;;17.76;38.57
41044;BME280;51680;49.806;18.774;2023-04-26T06:52:10;97061.19;;;17.93;38.12
41044;BME280;51680;49.806;18.774;2023-04-26T06:55:12;97060.91;;;17.96;37.70
41044;BME280;51680;49.806;18.774;2023-04-26T06:58:14;97058.38;;;18.12;37.68
41044;BME280;51680;49.806;18.774;2023-04-26T07:01:17;97058.53;;;18.28;37.48
41044;BME280;51680;49.806;18.774;2023-04-26T07:04:19;97063.78;;;17.85;38.34
41044;BME280;51680;49.806;18.774;2023-04-26T07:07:21;97067.91;;;17.16;39.04
41044;BME280;51680;49.806;18.774;2023-04-26T07:10:22;97065.06;;;17.27;39.51
41044;BME280;51680;49.806;18.774;2023-04-26T07:13:50;97072.56;;;17.32;38.21
41044;BME280;51680;49.806;18.774;2023-04-26T07:16:54;97072.06;;;17.19;39.41
41044;BME280;51680;49.806;18.774;2023-04-26T07:19:55;97068.84;;;16.88;40.21
41044;BME280;51680;49.806;18.774;2023-04-26T07:22:57;97077.69;;;16.60;40.15
41044;BME280;51680;49.806;18.774;2023-04-26T07:25:59;97078.19;;;16.83;39.86
41044;BME280;51680;49.806;18.774;2023-04-26T07:29:03;97075.94;;;16.88;39.55
41044;BME280;51680;49.806;18.774;2023-04-26T07:32:06;97086.97;;;16.64;39.86
41044;BME280;51680;49.806;18.774;2023-04-26T07:35:09;97073.78;;;16.64;40.06
41044;BME280;51680;49.806;18.774;2023-04-26T07:38:15;97082.00;;;16.61;40.58
41044;BME280;51680;49.806;18.774;2023-04-26T07:41:19;97089.94;;;16.04;41.02
41044;BME280;51680;49.806;18.774;2023-04-26T07:44:20;97080.16;;;15.48;41.71
41044;BME280;51680;49.806;18.774;2023-04-26T07:47:23;97091.94;;;14.74;42.14
41044;BME280;51680;49.806;18.774;2023-04-26T07:50:25;97097.97;;;14.24;43.39
41044;BME280;51680;49.806;18.774;2023-04-26T07:53:27;97095.03;;;14.59;43.58
41044;BME280;51680;49.806;18.774;2023-04-26T07:56:29;97088.34;;;14.75;43.43
41044;BME280;51680;49.806;18.774;2023-04-26T07:59:30;97102.94;;;14.68;43.63
41044;BME280;51680;49.806;18.774;2023-04-26T08:02:33;97093.50;;;14.36;43.81
41044;BME280;51680;49.806;18.774;2023-04-26T08:05:35;97099.69;;;13.83;44.14
41044;BME280;51680;49.806;18.774;2023-04-26T08:08:37;97113.16;;;13.36;44.60
41044;BME280;51680;49.806;18.774;2023-04-26T08:11:43;97110.63;;;13.56;44.68
41044;BME280;51680;49.806;18.774;2023-04-26T08:14:45;97111.63;;;14.39;43.97
41044;BME280;51680;49.806;18.774;2023-04-26T08:17:48;97111.72;;;14.78;43.87
41044;BME280;51680;49.806;18.774;2023-04-26T08:20:52;97110.25;;;14.85;43.50
41044;BME280;51680;49.806;18.774;2023-04-26T08:23:54;97107.38;;;14.68;43.50
41044;BME280;51680;49.806;18.774;2023-04-26T08:26:56;97120.19;;;14.41;43.58
41044;BME280;51680;49.806;18.774;2023-04-26T08:29:58;97117.94;;;14.77;43.45
41044;BME280;51680;49.806;18.774;2023-04-26T08:33:02;97122.03;;;15.30;42.72
41044;BME280;51680;49.806;18.774;2023-04-26T08:36:04;97119.28;;;15.71;41.88
41044;BME280;51680;49.806;18.774;2023-04-26T08:39:06;97102.41;;;16.21;41.01
41044;BME280;51680;49.806;18.774;2023-04-26T08:42:13;97108.66;;;16.39;39.88
41044;BME280;51680;49.806;18.774;2023-04-26T08:45:15;97102.09;;;16.34;40.39
41044;BME280;51680;49.806;18.774;2023-04-26T08:48:18;97108.34;;;16.14;39.99
41044;BME280;51680;49.806;18.774;2023-04-26T08:51:21;97115.25;;;15.77;40.62
41044;BME280;51680;49.806;18.774;2023-04-26T08:54:23;97120.78;;;15.25;41.56
41044;BME280;51680;49.806;18.774;2023-04-26T08:57:26;97123.34;;;15.45;41.63
41044;BME280;51680;49.806;18.774;2023-04-26T09:00:32;97112.81;;;15.94;40.68
41044;BME280;51680;49.806;18.774;2023-04-26T09:03:35;97102.28;;;16.42;39.25
41044;BME280;51680;49.806;18.774;2023-04-26T09:06:37;97107.19;;;16.83;39.44
41044;BME280;51680;49.806;18.774;2023-04-26T09:09:41;97110.38;;;17.23;38.60
41044;BME280;51680;49.806;18.774;2023-04-26T09:12:43;97102.69;;;17.39;37.69
41044;BME280;51680;49.806;18.774;2023-04-26T09:15:47;97107.69;;;16.96;37.26
41044;BME280;51680;49.806;18.774;2023-04-26T09:18:50;97108.22;;;16.53;38.26
41044;BME280;51680;49.806;18.774;2023-04-26T09:21:56;97118.75;;;16.15;39.63
41044;BME280;51680;49.806;18.774;2023-04-26T09:24:59;97112.38;;;16.37;39.42
41044;BME280;51680;49.806;18.774;2023-04-26T09:28:02;97122.22;;;16.16;38.91
41044;BME280;51680;49.806;18.774;2023-04-26T09:31:04;97117.78;;;16.54;38.80
41044;BME280;51680;49.806;18.774;2023-04-26T09:34:08;97109.66;;;16.94;38.43
41044;BME280;51680;49.806;18.774;2023-04-26T09:37:10;97107.34;;;16.81;38.24
41044;BME280;51680;49.806;18.774;2023-04-26T09:40:17;97120.69;;;16.61;36.97
41044;BME280;51680;49.806;18.774;2023-04-26T09:43:20;97121.66;;;16.12;38.59
41044;BME280;51680;49.806;18.774;2023-04-26T09:46:22;97131.84;;;15.58;39.15
41044;BME280;51680;49.806;18.774;2023-04-26T09:49:26;97126.19;;;15.33;39.35
41044;BME280;51680;49.806;18.774;2023-04-26T09:52:46;97117.53;;;15.42;39.70
41044;BME280;51680;49.806;18.774;2023-04-26T09:55:48;97127.59;;;15.76;39.36
41044;BME280;51680;49.806;18.774;2023-04-26T09:58:57;97118.00;;;15.56;37.87
41044;BME280;51680;49.806;18.774;2023-04-26T10:02:00;97126.44;;;15.20;38.42
41044;BME280;51680;49.806;18.774;2023-04-26T10:05:06;97122.66;;;14.83;37.93
41044;BME280;51680;49.806;18.774;2023-04-26T10:08:09;97127.22;;;14.40;38.59
41044;BME280;51680;49.806;18.774;2023-04-26T10:11:11;97120.19;;;14.20;38.08
41044;BME280;51680;49.806;18.774;2023-04-26T10:14:13;97117.56;;;14.61;38.16
41044;BME280;51680;49.806;18.774;2023-04-26T10:17:17;97113.66;;;15.06;37.64
41044;BME280;51680;49.806;18.774;2023-04-26T10:20:21;97117.16;;;15.46;37.05
41044;BME280;51680;49.806;18.774;2023-04-26T10:23:25;97091.44;;;15.78;37.80
41044;BME280;51680;49.806;18.774;2023-04-26T10:26:46;97089.50;;;15.90;35.28
41044;BME280;51680;49.806;18.774;2023-04-26T10:30:06;97093.97;;;16.08;35.96
41044;BME280;51680;49.806;18.774;2023-04-26T10:33:11;97087.56;;;16.01;35.91
41044;BME280;51680;49.806;18.774;2023-04-26T10:36:16;97090.34;;;16.00;35.55
41044;BME280;51680;49.806;18.774;2023-04-26T10:39:20;97102.28;;;15.94;35.65
41044;BME280;51680;49.806;18.774;2023-04-26T10:42:24;97102.81;;;16.07;35.49
41044;BME280;51680;49.806;18.774;2023-04-26T10:45:27;97095.91;;;16.16;35.57
41044;BME280;51680;49.806;18.774;2023-04-26T10:48:30;97103.78;;;15.78;35.31
41044;BME280;51680;49.806;18.774;2023-04-26T10:51:33;97102.53;;;15.82;34.82
41044;BME280;51680;49.806;18.774;2023-04-26T10:54:45;97108.22;;;15.87;35.01
41044;BME280;51680;49.806;18.774;2023-04-26T10:57:49;97105.84;;;15.93;35.49
41044;BME280;51680;49.806;18.774;2023-04-26T11:01:03;97088.25;;;15.94;34.61
41044;BME280;51680;49.806;18.774;2023-04-26T11:04:06;97090.47;;;15.98;35.47
41044;BME280;51680;49.806;18.774;2023-04-26T11:07:46;97077.44;;;15.68;32.14
41044;BME280;51680;49.806;18.774;2023-04-26T11:11:09;97093.31;;;15.38;33.84
41044;BME280;51680;49.806;18.774;2023-04-26T11:14:13;97091.72;;;15.26;35.11
41044;BME280;51680;49.806;18.774;2023-04-26T11:17:14;97098.16;;;15.03;35.08
41044;BME280;51680;49.806;18.774;2023-04-26T11:20:16;97098.19;;;14.83;35.33
41044;BME280;51680;49.806;18.774;2023-04-26T11:23:19;97095.78;;;14.70;35.49
41044;BME280;51680;49.806;18.774;2023-04-26T11:26:21;97103.91;;;14.67;35.89
41044;BME280;51680;49.806;18.774;2023-04-26T11:29:24;97087.19;;;14.68;35.48
41044;BME280;51680;49.806;18.774;2023-04-26T11:32:26;97096.56;;;14.61;35.12
41044;BME280;51680;49.806;18.774;2023-04-26T11:35:28;97093.63;;;14.55;35.67
41044;BME280;51680;49.806;18.774;2023-04-26T11:38:31;97102.91;;;14.59;36.02
41044;BME280;51680;49.806;18.774;2023-04-26T11:41:33;97095.78;;;14.70;35.66
41044;BME280;51680;49.806;18.774;2023-04-26T11:44:35;97098.44;;;14.80;35.61
41044;BME280;51680;49.806;18.774;2023-04-26T11:47:38;97104.50;;;15.01;35.25
41044;BME280;51680;49.806;18.774;2023-04-26T11:50:40;97104.94;;;15.06;35.73
41044;BME280;51680;49.806;18.774;2023-04-26T11:53:43;97114.44;;;14.97;35.46
41044;BME280;51680;49.806;18.774;2023-04-26T11:56:45;97113.56;;;14.87;35.63
41044;BME280;51680;49.806;18.774;2023-04-26T11:59:47;97115.09;;;14.90;35.82
41044;BME280;51680;49.806;18.774;2023-04-26T12:02:49;97114.00;;;14.92;36.20
41044;BME280;51680;49.806;18.774;2023-04-26T12:05:53;97109.19;;;14.97;36.13
41044;BME280;51680;49.806;18.774;2023-04-26T12:08:56;97106.59;;;14.77;34.65
41044;BME280;51680;49.806;18.774;2023-04-26T12:11:59;97105.56;;;14.68;36.19
41044;BME280;51680;49.806;18.774;2023-04-26T12:15:08;97114.56;;;14.45;35.51
41044;BME280;51680;49.806;18.774;2023-04-26T12:18:10;97108.88;;;14.20;36.68
41044;BME280;51680;49.806;18.774;2023-04-26T12:21:12;97115.94;;;13.97;36.35
41044;BME280;51680;49.806;18.774;2023-04-26T12:24:25;97120.91;;;13.80;35.21
41044;BME280;51680;49.806;18.774;2023-04-26T12:27:29;97126.44;;;13.66;36.10
41044;BME280;51680;49.806;18.774;2023-04-26T12:30:30;97131.09;;;13.62;36.71
41044;BME280;51680;49.806;18.774;2023-04-26T12:33:35;97120.72;;;13.61;36.72
41044;BME280;51680;49.806;18.774;2023-04-26T12:36:39;97134.69;;;13.61;36.26
41044;BME280;51680;49.806;18.774;2023-04-26T12:39:42;97113.44;;;13.75;36.14
41044;BME280;51680;49.806;18.774;2023-04-26T12:42:47;97119.53;;;13.96;36.35
41044;BME280;51680;49.806;18.774;2023-04-26T12:45:49;97115.41;;;14.14;36.56
41044;BME280;51680;49.806;18.774;2023-04-26T12:48:51;97113.94;;;14.32;36.22
41044;BME280;51680;49.806;18.774;2023-04-26T12:51:52;97111.94;;;14.45;36.17
41044;BME280;51680;49.806;18.774;2023-04-26T12:54:55;97114.31;;;14.48;36.32
41044;BME280;51680;49.806;18.774;2023-04-26T12:57:57;97123.59;;;14.52;36.70
41044;BME280;51680;49.806;18.774;2023-04-26T13:00:59;97125.53;;;14.50;36.85
41044;BME280;51680;49.806;18.774;2023-04-26T13:04:01;97129.88;;;14.40;37.38
41044;BME280;51680;49.806;18.774;2023-04-26T13:07:04;97135.44;;;14.15;37.10
41044;BME280;51680;49.806;18.774;2023-04-26T13:10:08;97130.03;;;13.96;36.85
41044;BME280;51680;49.806;18.774;2023-04-26T13:13:10;97137.28;;;13.72;37.04
41044;BME280;51680;49.806;18.774;2023-04-26T13:16:12;97133.69;;;13.73;37.46
41044;BME280;51680;49.806;18.774;2023-04-26T13:19:14;97131.88;;;13.85;37.54
41044;BME280;51680;49.806;18.774;2023-04-26T13:22:16;97136.53;;;14.13;37.76
41044;BME280;51680;49.806;18.774;2023-04-26T13:25:19;97129.81;;;14.31;36.90
41044;BME280;51680;49.806;18.774;2023-04-26T13:28:21;97137.34;;;14.24;36.69
41044;BME280;51680;49.806;18.774;2023-04-26T13:31:23;97136.66;;;14.22;36.36
41044;BME280;51680;49.806;18.774;2023-04-26T13:34:25;97139.97;;;14.24;36.86
41044;BME280;51680;49.806;18.774;2023-04-26T13:37:27;97148.75;;;14.34;37.03
41044;BME280;51680;49.806;18.774;2023-04-26T13:40:30;97146.00;;;14.36;36.22
41044;BME280;51680;49.806;18.774;2023-04-26T13:43:31;97140.72;;;14.26;36.12
41044;BME280;51680;49.806;18.774;2023-04-26T13:46:33;97149.41;;;14.27;36.62
41044;BME280;51680;49.806;18.774;2023-04-26T13:49:35;97148.81;;;14.23;36.74
41044;BME280;51680;49.806;18.774;2023-04-26T13:52:39;97142.38;;;14.16;36.45
41044;BME280;51680;49.806;18.774;2023-04-26T13:55:42;97145.47;;;14.21;36.53
41044;BME280;51680;49.806;18.774;2023-04-26T13:58:43;97152.16;;;14.25;36.62
41044;BME280;51680;49.806;18.774;2023-04-26T14:01:45;97148.81;;;14.23;36.33
41044;BME280;51680;49.806;18.774;2023-04-26T14:04:47;97158.97;;;14.17;36.59
41044;BME280;51680;49.806;18.774;2023-04-26T14:07:48;97162.97;;;14.00;36.78
41044;BME280;51680;49.806;18.774;2023-04-26T14:10:52;97153.59;;;13.87;36.67
41044;BME280;51680;49.806;18.774;2023-04-26T14:13:53;97161.34;;;13.77;36.92
41044;BME280;51680;49.806;18.774;2023-04-26T14:16:56;97153.28;;;13.69;36.75
41044;BME280;51680;49.806;18.774;2023-04-26T14:19:58;97163.78;;;13.69;37.00
41044;BME280;51680;49.806;18.774;2023-04-26T14:23:00;97155.44;;;13.64;36.53
41044;BME280;51680;49.806;18.774;2023-04-26T14:26:03;97157.91;;;13.66;36.42
41044;BME280;51680;49.806;18.774;2023-04-26T14:29:05;97162.13;;;13.57;37.64
41044;BME280;51680;49.806;18.774;2023-04-26T14:32:06;97166.78;;;13.43;37.66
41044;BME280;51680;49.806;18.774;2023-04-26T14:35:08;97173.84;;;13.31;37.69
41044;BME280;51680;49.806;18.774;2023-04-26T14:38:10;97175.25;;;13.24;38.15
41044;BME280;51680;49.806;18.774;2023-04-26T14:41:17;97176.34;;;13.11;38.12
41044;BME280;51680;49.806;18.774;2023-04-26T14:44:21;97178.84;;;13.12;38.77
41044;BME280;51680;49.806;18.774;2023-04-26T14:47:23;97183.59;;;13.18;38.97
41044;BME280;51680;49.806;18.774;2023-04-26T14:50:25;97176.69;;;13.28;38.83
41044;BME280;51680;49.806;18.774;2023-04-26T14:53:27;97171.91;;;13.44;38.55
41044;BME280;51680;49.806;18.774;2023-04-26T14:56:32;97172.84;;;13.54;37.42
41044;BME280;51680;49.806;18.774;2023-04-26T14:59:35;97170.34;;;13.64;37.26
41044;BME280;51680;49.806;18.774;2023-04-26T15:02:36;97170.78;;;13.69;36.80
41044;BME280;51680;49.806;18.774;2023-04-26T15:05:38;97178.91;;;13.66;36.64
41044;BME280;51680;49.806;18.774;2023-04-26T15:08:40;97176.31;;;13.55;36.64
41044;BME280;51680;49.806;18.774;2023-04-26T15:11:43;97177.03;;;13.46;36.80
41044;BME280;51680;49.806;18.774;2023-04-26T15:14:45;97183.09;;;13.35;36.96
41044;BME280;51680;49.806;18.774;2023-04-26T15:17:47;97190.88;;;13.26;36.84
41044;BME280;51680;49.806;18.774;2023-04-26T15:20:49;97188.00;;;13.18;37.31
41044;BME280;51680;49.806;18.774;2023-04-26T15:23:50;97189.31;;;13.12;36.99
41044;BME280;51680;49.806;18.774;2023-04-26T15:26:53;97193.34;;;13.05;36.88
41044;BME280;51680;49.806;18.774;2023-04-26T15:29:55;97198.84;;;13.02;37.54
41044;BME280;51680;49.806;18.774;2023-04-26T15:32:58;97204.09;;;13.02;37.32
41044;BME280;51680;49.806;18.774;2023-04-26T15:36:00;97192.97;;;12.99;37.64
41044;BME280;51680;49.806;18.774;2023-04-26T15:39:02;97196.78;;;12.95;37.84
41044;BME280;51680;49.806;18.774;2023-04-26T15:42:05;97194.28;;;12.93;37.94
41044;BME280;51680;49.806;18.774;2023-04-26T15:45:08;97199.50;;;12.93;38.10
41044;BME280;51680;49.806;18.774;2023-04-26T15:48:09;97200.47;;;12.92;38.11
41044;BME280;51680;49.806;18.774;2023-04-26T15:51:11;97197.84;;;12.92;38.30
41044;BME280;51680;49.806;18.774;2023-04-26T15:54:13;97205.56;;;12.94;38.28
41044;BME280;51680;49.806;18.774;2023-04-26T15:57:16;97200.72;;;13.00;38.41
41044;BME280;51680;49.806;18.774;2023-04-26T16:00:18;97205.00;;;13.01;39.08
41044;BME280;51680;49.806;18.774;2023-04-26T16:03:20;97202.03;;;12.95;39.11